createdAt,value
2019-05-18T00:02:17.540Z,16.13
2019-05-18T00:04:46.927Z,16.13
2019-05-18T00:07:16.321Z,16.09
2019-05-18T00:09:45.698Z,16.01
2019-05-18T00:12:19.321Z,15.99
2019-05-18T00:14:52.352Z,15.99
2019-05-18T00:17:25.294Z,15.96
2019-05-18T00:19:52.957Z,15.92
2019-05-18T00:22:22.316Z,15.90
2019-05-18T00:24:51.715Z,15.87
2019-05-18T00:27:21.232Z,15.86
2019-05-18T00:29:50.593Z,15.80
2019-05-18T00:32:19.972Z,15.74
2019-05-18T00:34:49.346Z,15.68
2019-05-18T00:37:18.690Z,15.70
2019-05-18T00:39:48.155Z,15.69
2019-05-18T00:42:17.589Z,15.63
2019-05-18T00:44:46.966Z,15.61
2019-05-18T00:47:16.351Z,15.57
2019-05-18T00:49:45.720Z,15.54
2019-05-18T00:52:15.159Z,15.58
2019-05-18T00:54:44.595Z,15.49
2019-05-18T00:57:13.966Z,15.43
2019-05-18T00:59:43.398Z,15.38
2019-05-18T01:02:12.732Z,15.36
2019-05-18T01:04:42.119Z,15.36
2019-05-18T01:07:11.537Z,15.31
2019-05-18T01:09:40.934Z,15.27
2019-05-18T01:12:10.292Z,15.23
2019-05-18T01:14:39.656Z,15.27
2019-05-18T01:17:09.107Z,15.31
2019-05-18T01:19:38.857Z,15.25
2019-05-18T01:22:08.309Z,15.20
2019-05-18T01:24:37.735Z,15.19
2019-05-18T01:27:07.157Z,15.19
2019-05-18T01:29:36.538Z,15.16
2019-05-18T01:32:06.074Z,15.15
2019-05-18T01:34:35.447Z,15.08
2019-05-18T01:37:04.903Z,15.05
2019-05-18T01:39:34.254Z,14.99
2019-05-18T01:42:03.832Z,14.97
2019-05-18T01:44:33.328Z,14.96
2019-05-18T01:47:02.851Z,14.90
2019-05-18T01:49:32.418Z,14.94
2019-05-18T01:52:01.930Z,14.94
2019-05-18T01:54:31.422Z,14.91
2019-05-18T01:57:01.200Z,14.81
2019-05-18T01:59:30.774Z,14.80
2019-05-18T02:02:00.360Z,14.54
2019-05-18T02:04:29.863Z,14.43
2019-05-18T02:06:59.375Z,14.40
2019-05-18T02:09:28.864Z,14.38
2019-05-18T02:11:58.697Z,14.46
2019-05-18T02:14:28.471Z,14.53
2019-05-18T02:16:57.961Z,14.56
2019-05-18T02:19:27.458Z,14.57
2019-05-18T02:21:56.968Z,14.48
2019-05-18T02:24:26.465Z,14.35
2019-05-18T02:26:56.001Z,14.27
2019-05-18T02:29:25.498Z,14.36
2019-05-18T02:31:55.172Z,14.37
2019-05-18T02:34:24.979Z,14.41
2019-05-18T02:36:54.570Z,14.36
2019-05-18T02:39:24.152Z,14.42
2019-05-18T02:41:53.723Z,14.37
2019-05-18T02:44:23.224Z,14.34
2019-05-18T02:46:52.803Z,14.32
2019-05-18T02:49:22.306Z,14.32
2019-05-18T02:51:51.902Z,14.31
2019-05-18T02:54:21.454Z,14.28
2019-05-18T02:56:51.058Z,14.28
2019-05-18T02:59:20.638Z,14.25
2019-05-18T03:01:50.215Z,14.18
2019-05-18T03:04:19.909Z,14.18
2019-05-18T03:06:49.415Z,14.14
2019-05-18T03:09:18.897Z,14.08
2019-05-18T03:11:48.483Z,14.04
2019-05-18T03:14:18.045Z,13.99
2019-05-18T03:16:47.639Z,14.04
2019-05-18T03:19:17.223Z,14.00
2019-05-18T03:21:46.813Z,13.95
2019-05-18T03:24:16.318Z,13.96
2019-05-18T03:26:45.816Z,13.97
2019-05-18T03:29:15.468Z,13.95
2019-05-18T03:31:45.147Z,13.93
2019-05-18T03:34:14.598Z,13.95
2019-05-18T03:36:44.182Z,14.03
2019-05-18T03:39:13.735Z,14.14
2019-05-18T03:41:43.313Z,14.09
2019-05-18T03:44:12.817Z,14.07
2019-05-18T03:46:43.959Z,13.96
2019-05-18T03:49:26.257Z,13.97
2019-05-18T03:51:44.713Z,13.98
2019-05-18T03:54:14.202Z,13.95
2019-05-18T03:56:46.818Z,14.07
2019-05-18T03:59:16.386Z,14.10
2019-05-18T04:01:45.898Z,14.21
2019-05-18T04:04:18.409Z,14.08
2019-05-18T04:06:46.606Z,14.11
2019-05-18T04:09:16.301Z,14.19
2019-05-18T04:11:45.804Z,14.13
2019-05-18T04:14:15.382Z,14.24
2019-05-18T04:16:44.972Z,14.24
2019-05-18T04:19:14.522Z,14.28
2019-05-18T04:21:44.113Z,14.26
2019-05-18T04:24:13.603Z,14.19
2019-05-18T04:26:43.128Z,14.22
2019-05-18T04:29:12.659Z,14.13
2019-05-18T04:31:42.155Z,14.09
2019-05-18T04:34:11.651Z,14.03
2019-05-18T04:36:42.892Z,14.10
2019-05-18T04:39:12.489Z,14.13
2019-05-18T04:41:42.010Z,14.15
2019-05-18T04:44:11.514Z,14.08
2019-05-18T04:46:41.085Z,14.17
2019-05-18T04:49:10.635Z,14.11
2019-05-18T04:51:40.151Z,14.20
2019-05-18T04:54:09.709Z,14.25
2019-05-18T04:56:42.712Z,14.28
2019-05-18T04:59:10.606Z,14.20
2019-05-18T05:01:40.268Z,14.20
2019-05-18T05:04:09.795Z,14.23
2019-05-18T05:06:39.373Z,14.25
2019-05-18T05:09:09.364Z,14.24
2019-05-18T05:11:38.870Z,14.36
2019-05-18T05:14:08.481Z,14.43
2019-05-18T05:16:37.958Z,14.52
2019-05-18T05:19:08.827Z,14.42
2019-05-18T05:21:38.506Z,14.23
2019-05-18T05:24:08.136Z,14.28
2019-05-18T05:26:39.606Z,14.32
2019-05-18T05:29:08.936Z,14.39
2019-05-18T05:31:38.437Z,14.23
2019-05-18T05:34:08.124Z,14.15
2019-05-18T05:36:37.611Z,14.09
2019-05-18T05:39:07.328Z,14.19
2019-05-18T05:41:36.891Z,14.25
2019-05-18T05:44:06.480Z,14.29
2019-05-18T05:46:37.476Z,14.22
2019-05-18T05:49:07.267Z,14.29
2019-05-18T05:51:36.771Z,14.41
2019-05-18T05:54:06.281Z,14.42
2019-05-18T05:56:35.781Z,14.43
2019-05-18T05:59:05.502Z,14.42
2019-05-18T06:01:34.970Z,14.60
2019-05-18T06:04:04.557Z,14.61
2019-05-18T06:06:34.069Z,14.57
2019-05-18T06:09:05.575Z,14.63
2019-05-18T06:11:35.138Z,14.61
2019-05-18T06:14:04.883Z,14.64
2019-05-18T06:16:34.403Z,14.73
2019-05-18T06:19:03.946Z,14.78
2019-05-18T06:21:33.452Z,14.87
2019-05-18T06:24:03.031Z,14.93
2019-05-18T06:26:32.585Z,14.91
2019-05-18T06:29:02.107Z,14.94
2019-05-18T06:31:31.650Z,15.15
2019-05-18T06:34:01.155Z,15.15
2019-05-18T06:36:30.638Z,15.16
2019-05-18T06:39:00.164Z,15.12
2019-05-18T06:41:29.669Z,15.23
2019-05-18T06:43:59.160Z,15.49
2019-05-18T06:46:28.642Z,15.43
2019-05-18T06:48:58.226Z,15.42
2019-05-18T06:51:27.898Z,15.41
2019-05-18T06:53:57.430Z,15.47
2019-05-18T06:56:27.249Z,15.41
2019-05-18T06:58:58.038Z,15.42
2019-05-18T07:01:27.533Z,15.44
2019-05-18T07:03:57.034Z,15.40
2019-05-18T07:06:26.545Z,15.43
2019-05-18T07:08:56.142Z,15.50
2019-05-18T07:11:25.714Z,15.50
2019-05-18T07:13:55.242Z,15.62
2019-05-18T07:16:24.821Z,15.64
2019-05-18T07:18:54.332Z,15.75
2019-05-18T07:21:23.834Z,15.70
2019-05-18T07:23:53.341Z,15.68
2019-05-18T07:26:22.928Z,15.81
2019-05-18T07:28:52.437Z,15.81
2019-05-18T07:31:22.352Z,15.86
2019-05-18T07:33:51.937Z,15.92
2019-05-18T07:36:21.554Z,15.97
2019-05-18T07:38:51.045Z,16.08
2019-05-18T07:41:20.696Z,16.22
2019-05-18T07:43:50.202Z,16.17
2019-05-18T07:46:19.692Z,16.16
2019-05-18T07:48:49.295Z,16.18
2019-05-18T07:51:18.803Z,16.22
2019-05-18T07:53:48.621Z,16.21
2019-05-18T07:56:18.115Z,16.24
2019-05-18T07:58:47.825Z,16.30
2019-05-18T08:01:17.353Z,16.35
2019-05-18T08:03:46.939Z,16.42
2019-05-18T08:06:16.445Z,16.46
2019-05-18T08:08:45.958Z,16.56
2019-05-18T08:11:15.479Z,16.58
2019-05-18T08:13:45.177Z,16.64
2019-05-18T08:16:14.691Z,16.70
2019-05-18T08:18:44.300Z,16.75
2019-05-18T08:21:13.888Z,16.78
2019-05-18T08:23:43.525Z,16.82
2019-05-18T08:26:13.171Z,16.89
2019-05-18T08:28:42.825Z,16.96
2019-05-18T08:31:53.132Z,16.98
2019-05-18T08:34:51.385Z,17.07
2019-05-18T08:37:21.550Z,17.16
2019-05-18T08:39:51.016Z,17.21
2019-05-18T08:42:20.511Z,17.32
2019-05-18T08:44:50.032Z,17.35
2019-05-18T08:47:19.521Z,17.41
2019-05-18T08:49:49.013Z,17.50
2019-05-18T08:52:18.478Z,17.55
2019-05-18T08:54:47.889Z,17.60
2019-05-18T08:57:17.310Z,17.65
2019-05-18T08:59:46.758Z,17.71
2019-05-18T09:02:16.122Z,17.82
2019-05-18T09:04:45.587Z,17.95
2019-05-18T09:07:14.928Z,17.99
2019-05-18T09:09:44.397Z,17.99
2019-05-18T09:12:13.835Z,18.14
2019-05-18T09:14:43.225Z,18.20
2019-05-18T09:17:12.628Z,18.27
2019-05-18T09:19:42.027Z,18.21
2019-05-18T09:22:22.758Z,18.19
2019-05-18T09:24:42.696Z,18.20
2019-05-18T09:27:12.134Z,18.24
2019-05-18T09:29:41.503Z,18.27
2019-05-18T09:32:10.993Z,18.31
2019-05-18T09:34:40.369Z,18.34
2019-05-18T09:37:09.735Z,18.38
2019-05-18T09:39:39.370Z,18.42
2019-05-18T09:42:08.777Z,18.47
2019-05-18T09:44:38.384Z,18.53
2019-05-18T09:47:07.848Z,18.59
2019-05-18T09:49:37.295Z,18.61
2019-05-18T09:52:06.752Z,18.67
2019-05-18T09:54:36.157Z,18.75
2019-05-18T09:57:05.645Z,18.71
2019-05-18T09:59:35.106Z,18.82
2019-05-18T10:02:04.481Z,18.92
2019-05-18T10:04:34.010Z,18.96
2019-05-18T10:07:03.350Z,19.02
2019-05-18T10:09:38.911Z,19.08
2019-05-18T10:12:03.888Z,19.11
2019-05-18T10:14:33.230Z,19.17
2019-05-18T10:17:02.800Z,19.22
2019-05-18T10:19:37.417Z,19.17
2019-05-18T10:22:06.876Z,19.28
2019-05-18T10:24:36.393Z,19.37
2019-05-18T10:27:05.846Z,19.44
2019-05-18T10:29:35.216Z,19.52
2019-05-18T10:32:06.136Z,19.58
2019-05-18T10:34:35.638Z,19.55
2019-05-18T10:37:05.105Z,19.74
2019-05-18T10:39:34.474Z,19.88
2019-05-18T10:42:03.904Z,19.87
2019-05-18T10:44:33.400Z,19.85
2019-05-18T10:47:02.846Z,19.96
2019-05-18T10:49:32.221Z,20.05
2019-05-18T10:52:01.646Z,19.93
2019-05-18T10:54:31.532Z,20.17
2019-05-18T10:57:00.882Z,20.37
2019-05-18T10:59:30.415Z,20.41
2019-05-18T11:01:59.997Z,20.42
2019-05-18T11:04:29.457Z,20.48
2019-05-18T11:06:58.945Z,20.49
2019-05-18T11:09:28.364Z,20.60
2019-05-18T11:11:57.777Z,20.72
2019-05-18T11:14:27.221Z,20.68
2019-05-18T11:16:56.643Z,20.88
2019-05-18T11:19:25.851Z,21.01
2019-05-18T11:21:55.807Z,21.07
2019-05-18T11:24:25.278Z,20.86
2019-05-18T11:26:55.877Z,20.84
2019-05-18T11:29:25.377Z,21.00
2019-05-18T11:31:54.817Z,21.08
2019-05-18T11:34:24.312Z,21.27
2019-05-18T11:36:53.906Z,21.90
2019-05-18T11:39:23.457Z,22.35
2019-05-18T11:41:52.934Z,22.28
2019-05-18T11:44:22.382Z,22.03
2019-05-18T11:46:51.727Z,21.90
2019-05-18T11:49:21.150Z,22.08
2019-05-18T11:51:50.546Z,22.40
2019-05-18T11:54:20.015Z,22.67
2019-05-18T11:56:49.438Z,22.54
2019-05-18T11:59:18.778Z,22.86
2019-05-18T12:01:48.171Z,23.07
2019-05-18T12:04:17.797Z,25.28
2019-05-18T12:06:47.170Z,23.77
2019-05-18T12:09:16.558Z,23.74
2019-05-18T12:11:45.939Z,23.19
2019-05-18T12:14:15.377Z,23.38
2019-05-18T12:16:44.782Z,23.67
2019-05-18T12:19:14.753Z,23.79
2019-05-18T12:21:44.241Z,23.76
2019-05-18T12:24:15.841Z,23.72
2019-05-18T12:26:44.840Z,23.87
2019-05-18T12:29:14.239Z,23.77
2019-05-18T12:31:43.680Z,23.92
2019-05-18T12:34:13.123Z,24.21
2019-05-18T12:36:42.494Z,24.05
2019-05-18T12:39:11.966Z,24.00
2019-05-18T12:41:41.397Z,24.37
2019-05-18T12:44:10.854Z,24.53
2019-05-18T12:46:40.327Z,24.10
2019-05-18T12:49:09.774Z,25.12
2019-05-18T12:51:39.186Z,24.68
2019-05-18T12:54:08.655Z,24.61
2019-05-18T12:56:38.024Z,24.56
2019-05-18T12:59:07.515Z,24.46
2019-05-18T13:01:38.479Z,24.56
2019-05-18T13:04:07.936Z,24.63
2019-05-18T13:06:37.389Z,24.49
2019-05-18T13:09:07.329Z,24.43
2019-05-18T13:11:36.728Z,24.25
2019-05-18T13:14:06.196Z,24.34
2019-05-18T13:16:35.641Z,24.42
2019-05-18T13:19:05.182Z,24.47
2019-05-18T13:21:34.652Z,24.64
2019-05-18T13:24:04.183Z,24.66
2019-05-18T13:26:33.602Z,24.76
2019-05-18T13:29:03.009Z,24.74
2019-05-18T13:31:32.505Z,24.64
2019-05-18T13:34:01.935Z,24.64
2019-05-18T13:36:31.320Z,24.69
2019-05-18T13:39:00.724Z,24.79
2019-05-18T13:41:30.275Z,24.77
2019-05-18T13:43:59.657Z,24.57
2019-05-18T13:46:29.034Z,24.47
2019-05-18T13:48:58.443Z,24.64
2019-05-18T13:51:27.902Z,24.83
2019-05-18T13:53:57.278Z,24.94
2019-05-18T13:56:26.657Z,24.81
2019-05-18T13:58:56.030Z,24.64
2019-05-18T14:01:25.493Z,24.88
2019-05-18T14:03:54.959Z,25.06
2019-05-18T14:06:24.444Z,25.10
2019-05-18T14:08:53.869Z,25.19
2019-05-18T14:11:23.355Z,25.20
2019-05-18T14:13:52.765Z,25.34
2019-05-18T14:16:22.225Z,24.97
2019-05-18T14:18:51.588Z,24.90
2019-05-18T14:21:20.979Z,24.72
2019-05-18T14:23:50.395Z,24.74
2019-05-18T14:26:19.785Z,24.79
2019-05-18T14:28:49.174Z,24.57
2019-05-18T14:31:18.597Z,24.67
2019-05-18T14:33:48.083Z,24.85
2019-05-18T14:36:17.506Z,24.71
2019-05-18T14:38:46.927Z,24.56
2019-05-18T14:41:16.372Z,24.43
2019-05-18T14:43:45.791Z,24.53
2019-05-18T14:46:15.234Z,24.24
2019-05-18T14:48:44.641Z,24.35
2019-05-18T14:51:14.139Z,24.39
2019-05-18T14:53:43.760Z,24.30
2019-05-18T14:56:13.245Z,24.30
2019-05-18T14:58:42.954Z,24.31
2019-05-18T15:01:12.630Z,24.26
2019-05-18T15:03:42.202Z,24.29
2019-05-18T15:06:11.776Z,24.22
2019-05-18T15:08:41.301Z,24.09
2019-05-18T15:11:10.887Z,24.06
2019-05-18T15:13:40.400Z,24.13
2019-05-18T15:16:09.956Z,24.01
2019-05-18T15:18:39.538Z,24.09
2019-05-18T15:21:09.299Z,24.01
2019-05-18T15:23:38.898Z,24.04
2019-05-18T15:26:08.470Z,23.96
2019-05-18T15:28:37.996Z,23.85
2019-05-18T15:31:07.568Z,23.83
2019-05-18T15:33:37.081Z,23.86
2019-05-18T15:36:06.625Z,23.88
2019-05-18T15:38:36.137Z,23.86
2019-05-18T15:41:05.723Z,23.89
2019-05-18T15:43:35.300Z,23.93
2019-05-18T15:46:04.850Z,23.91
2019-05-18T15:48:34.402Z,23.95
2019-05-18T15:51:03.871Z,24.05
2019-05-18T15:53:33.377Z,24.01
2019-05-18T15:56:05.817Z,23.96
2019-05-18T15:58:34.337Z,24.00
2019-05-18T16:01:03.923Z,24.04
2019-05-18T16:03:33.442Z,24.07
2019-05-18T16:06:02.973Z,24.16
2019-05-18T16:08:32.495Z,24.06
2019-05-18T16:11:01.982Z,24.10
2019-05-18T16:13:31.493Z,23.98
2019-05-18T16:16:00.993Z,23.98
2019-05-18T16:18:30.502Z,23.89
2019-05-18T16:21:00.082Z,23.96
2019-05-18T16:23:29.577Z,23.96
2019-05-18T16:25:59.065Z,23.84
2019-05-18T16:28:28.567Z,23.71
2019-05-18T16:30:58.366Z,23.93
2019-05-18T16:33:27.975Z,24.05
2019-05-18T16:35:57.685Z,24.12
2019-05-18T16:38:27.159Z,24.28
2019-05-18T16:40:56.652Z,24.21
2019-05-18T16:43:26.243Z,24.09
2019-05-18T16:45:55.824Z,24.19
2019-05-18T16:48:25.405Z,24.17
2019-05-18T16:50:54.895Z,24.30
2019-05-18T16:53:24.650Z,24.35
2019-05-18T16:55:54.166Z,24.39
2019-05-18T16:58:23.645Z,24.34
2019-05-18T17:00:53.146Z,24.63
2019-05-18T17:03:22.782Z,24.76
2019-05-18T17:05:52.256Z,24.81
2019-05-18T17:08:21.759Z,24.85
2019-05-18T17:10:51.258Z,25.01
2019-05-18T17:13:20.842Z,25.02
2019-05-18T17:15:50.415Z,25.03
2019-05-18T17:18:19.923Z,25.09
2019-05-18T17:20:49.426Z,25.10
2019-05-18T17:23:19.064Z,24.97
2019-05-18T17:25:48.710Z,25.06
2019-05-18T17:28:18.219Z,25.02
2019-05-18T17:30:47.722Z,25.00
2019-05-18T17:33:17.804Z,24.92
2019-05-18T17:35:59.896Z,24.85
2019-05-18T17:38:19.199Z,24.77
2019-05-18T17:40:48.768Z,24.79
2019-05-18T17:43:18.889Z,24.71
2019-05-18T17:45:48.373Z,24.59
2019-05-18T17:48:17.900Z,24.54
2019-05-18T17:50:47.418Z,24.48
2019-05-18T17:53:17.020Z,24.46
2019-05-18T17:55:46.516Z,24.27
2019-05-18T17:58:16.074Z,24.24
2019-05-18T18:00:46.070Z,24.19
2019-05-18T18:03:15.569Z,24.20
2019-05-18T18:05:45.107Z,24.12
2019-05-18T18:08:14.680Z,24.04
2019-05-18T18:10:45.076Z,23.99
2019-05-18T18:13:14.573Z,23.88
2019-05-18T18:15:44.101Z,23.67
2019-05-18T18:18:13.598Z,23.71
2019-05-18T18:20:43.211Z,23.65
2019-05-18T18:23:14.509Z,23.52
2019-05-18T18:25:45.610Z,23.55
2019-05-18T18:28:16.703Z,23.50
2019-05-18T18:30:46.529Z,23.46
2019-05-18T18:33:16.093Z,23.38
2019-05-18T18:35:45.744Z,23.32
2019-05-18T18:38:15.470Z,23.25
2019-05-18T18:40:44.957Z,23.17
2019-05-18T18:43:14.460Z,23.10
2019-05-18T18:45:44.080Z,23.01
2019-05-18T18:48:13.565Z,22.96
2019-05-18T18:50:43.072Z,22.86
2019-05-18T18:53:12.623Z,22.79
2019-05-18T18:55:42.099Z,22.71
2019-05-18T18:58:11.622Z,22.62
2019-05-18T19:00:41.251Z,22.56
2019-05-18T19:03:10.755Z,22.45
2019-05-18T19:05:40.277Z,22.38
2019-05-18T19:08:09.766Z,22.30
2019-05-18T19:10:39.334Z,22.21
2019-05-18T19:13:08.822Z,22.16
2019-05-18T19:15:38.397Z,22.10
2019-05-18T19:18:07.891Z,22.00
2019-05-18T19:20:37.453Z,21.93
2019-05-18T19:23:06.935Z,21.87
2019-05-18T19:25:36.435Z,21.81
2019-05-18T19:28:06.064Z,21.77
2019-05-18T19:30:35.746Z,21.72
2019-05-18T19:33:05.293Z,21.67
2019-05-18T19:35:34.858Z,21.61
2019-05-18T19:38:04.455Z,21.55
2019-05-18T19:40:33.949Z,21.51
2019-05-18T19:43:03.459Z,21.47
2019-05-18T19:45:32.961Z,21.42
2019-05-18T19:48:02.524Z,21.36
2019-05-18T19:50:32.099Z,21.30
2019-05-18T19:53:01.600Z,21.25
2019-05-18T19:55:31.080Z,21.18
2019-05-18T19:58:08.550Z,21.14
2019-05-18T20:00:31.903Z,21.07
2019-05-18T20:03:01.389Z,21.03
2019-05-18T20:05:30.876Z,20.97
2019-05-18T20:08:00.365Z,20.90
2019-05-18T20:10:29.886Z,20.82
2019-05-18T20:12:59.398Z,20.77
2019-05-18T20:15:28.987Z,20.70
2019-05-18T20:17:58.511Z,20.66
2019-05-18T20:20:27.995Z,20.62
2019-05-18T20:22:57.565Z,20.58
2019-05-18T20:25:27.137Z,20.54
2019-05-18T20:27:56.654Z,20.51
2019-05-18T20:30:26.207Z,20.46
2019-05-18T20:32:55.699Z,20.42
2019-05-18T20:35:25.974Z,20.38
2019-05-18T20:37:55.622Z,20.34
2019-05-18T20:40:25.115Z,20.27
2019-05-18T20:42:54.621Z,20.23
2019-05-18T20:45:24.129Z,20.19
2019-05-18T20:47:53.690Z,20.12
2019-05-18T20:50:23.259Z,20.09
2019-05-18T20:52:52.757Z,20.04
2019-05-18T20:55:22.198Z,20.05
2019-05-18T20:57:51.600Z,20.00
2019-05-18T21:00:21.062Z,19.94
2019-05-18T21:02:50.549Z,19.88
2019-05-18T21:05:20.026Z,19.74
2019-05-18T21:07:49.435Z,19.68
2019-05-18T21:10:18.871Z,19.60
2019-05-18T21:12:48.270Z,19.53
2019-05-18T21:15:17.743Z,19.48
2019-05-18T21:17:47.148Z,19.41
2019-05-18T21:20:16.709Z,19.37
2019-05-18T21:22:46.109Z,19.34
2019-05-18T21:25:15.716Z,19.25
2019-05-18T21:27:45.126Z,19.17
2019-05-18T21:30:16.679Z,19.12
2019-05-18T21:32:46.050Z,19.11
2019-05-18T21:35:15.472Z,19.09
2019-05-18T21:37:44.865Z,19.05
2019-05-18T21:40:14.328Z,19.01
2019-05-18T21:42:43.720Z,19.01
2019-05-18T21:45:13.785Z,19.03
2019-05-18T21:47:43.241Z,19.00
2019-05-18T21:50:14.603Z,18.97
2019-05-18T21:52:44.008Z,18.94
2019-05-18T21:55:13.476Z,18.93
2019-05-18T21:57:42.845Z,18.90
2019-05-18T22:00:12.698Z,18.86
2019-05-18T22:02:42.237Z,18.84
2019-05-18T22:05:11.772Z,18.82
2019-05-18T22:07:41.215Z,18.77
2019-05-18T22:10:24.869Z,18.75
2019-05-18T22:12:42.838Z,18.74
2019-05-18T22:15:12.292Z,18.71
2019-05-18T22:17:59.740Z,18.70
2019-05-18T22:20:29.158Z,18.64
2019-05-18T22:22:58.598Z,18.63
2019-05-18T22:25:28.183Z,18.65
2019-05-18T22:27:57.570Z,18.65
2019-05-18T22:30:27.030Z,18.59
2019-05-18T22:32:56.432Z,18.53
2019-05-18T22:35:25.875Z,18.51
2019-05-18T22:37:55.344Z,18.51
2019-05-18T22:40:24.752Z,18.49
2019-05-18T22:42:54.099Z,18.46
2019-05-18T22:45:23.555Z,18.32
2019-05-18T22:47:52.921Z,18.18
2019-05-18T22:50:22.453Z,18.10
2019-05-18T22:52:51.838Z,18.04
2019-05-18T22:55:21.309Z,18.02
2019-05-18T22:57:50.781Z,18.00
2019-05-18T23:00:21.026Z,17.93
2019-05-18T23:02:51.137Z,17.96
2019-05-18T23:05:20.464Z,18.02
2019-05-18T23:07:50.276Z,17.84
2019-05-18T23:10:19.871Z,17.76
2019-05-18T23:12:49.392Z,17.69
2019-05-18T23:15:18.952Z,17.64
2019-05-18T23:17:48.300Z,17.69
2019-05-18T23:20:17.815Z,17.71
2019-05-18T23:22:47.216Z,17.68
2019-05-18T23:25:16.722Z,17.67
2019-05-18T23:27:46.172Z,17.82
2019-05-18T23:30:15.641Z,17.81
2019-05-18T23:32:45.573Z,17.82
2019-05-18T23:35:15.001Z,17.87
2019-05-18T23:37:44.473Z,17.84
2019-05-18T23:40:15.299Z,17.79
2019-05-18T23:42:44.693Z,17.81
2019-05-18T23:45:15.715Z,17.72
2019-05-18T23:47:45.149Z,17.62
2019-05-18T23:50:14.527Z,17.51
2019-05-18T23:52:43.908Z,17.52
2019-05-18T23:55:13.493Z,17.49
2019-05-18T23:57:42.833Z,17.52
